Deming Municipal Airport
KDMN : rendu visible

Aérodrome :











RETROUVEZ-NOUS SUR...

 
LOGIN :

S'inscrire | Disclaimer

   EN    FR    IT 

 









Légende :    VFR   VFR Marginal   IFR   IFR Intensif   IFR Très Intensif
Visi : 
Plafond : 
>= 8 km
>= 3000ft
5 à 8 km
1000 à 3000 ft
1500m à 5 km
500 à 1000 ft
800 à 1500m
200 à 500 ft
< 800m
< 200 ft
Symboles :   Orages  Brouillard  Fortes neiges  Fortes précipitations  Vent > 20 kt







- Altitude de l'aérodrome : 4314 ft


KDMN - Deming Municipal

DERNIER METAR :
  • 222145Z AUTO 28024G38KT 3SM HZ FEW010 FEW090 BKN110 19/03 A2996 RMK AO2 PK WND 27045/2131 T01890033

METARs EXPIRÉS :
  • 222133Z AUTO 28035G45KT 1 1/4SM HZ FEW008 SCT110 22/M01 A2995 RMK AO2 PK WND 27045/2131 T02171006
  • 222053Z AUTO 25008KT 10SM CLR 24/M04 A2995 RMK AO2 SLP076 T02391039 56017 $
  • 221953Z AUTO 17009G19KT 10SM CLR 25/M04 A2997 RMK AO2 SLP079 T02501044 $
  • 221853Z AUTO 10SM CLR 24/00 A2998 RMK AO2 SLP085 T02390000 $

TAF KDMN
Valide du 22 à 18h jusqu'au 23 à 18h UTC


221734Z 2218/2318 21010KT P6SM FEW080 SCT150
FM222100 24010KT P6SM VCTS SCT090CB BKN150
FM230200 06008KT P6SM SCT080 BKN200
FM230900 07005KT P6SM FEW080 SCT250
FIR KZAB / Amérique du Nord



MET'MAP, la Météo Aéronautique d'un coup d'oeil ! - Copyright ORBIFLY Décembre 2007 - Disclaimer

ORBIFLY MET'MAP TEAM :

Programmation & Développement : Alexandra Zaïnal
Conception & Développement : Baudouin d'Aumeries
Co-Programmation & Développement : Marc-Olivier Méhu
Soutien technique & logistique : Manuel Goepfert

Contact : metmap@orbifly.com




SOURCES & CREDITS :

   NOAA       Earth
Advisory